Floraville, Illinois
Current Conditions -  °F | °C
As of 10:53 PM on Saturday 20 Dec 2014 (Local Time) from KCPS Reporting Station
Overcast Overcast  
Wind Chill: 36°   Ceiling: 2800
Heat Index: 41°   Visibility: 10mi
Dew Point: 34°   Wind: 7mph
Humidity: 76%   Direction: 160°SSE
Pressure: 30.26"   Gusts: NA
Location:  38.3034°N, 90.1358°W
Report Text: KCPS 210453Z AUTO 16006KT 10SM OVC028 05/01 A3026 RMK AO2 SLP248 T00500011 TSNO
Loading
Personal Weather Stations






























Interactive Weather Map New forecast layout! Learn more

10-Day Weather Forecast

Advertisements
Track Severe Weather on mobile